ASX454 LIRF-LICG
Flight info
| Callsign | ASX454 |
|---|---|
| Flight time | N/A |
| Altitude | 37000 |
| Route | KONUT Z923 RONAB DCT ADUKA M740 ROBET |
| Aircraft | A20N/M-SDE2E3FGHIJ1RWXY/LB1 |
Departure
| Time | N/A |
|---|---|
| Airport | Rome–Fiumicino Leonardo da Vinci International Airport (LIRF) |
Arrival
| Time | 2026-05-06 11:36 |
|---|---|
| Airport | Pantelleria Airport (LICG) |
| Time | Latitude | Longitude | Altitude | Speed | Heading |
|---|---|---|---|---|---|
| 2026-05-06 11:29 | 36.91469 | 11.85960 | 5415 ft | 242 kts | 242° |
| 2026-05-06 11:29 | 36.90804 | 11.84074 | 5241 ft | 235 kts | 244° |
| 2026-05-06 11:30 | 36.90179 | 11.82227 | 4992 ft | 232 kts | 244° |
| 2026-05-06 11:30 | 36.89518 | 11.80371 | 4684 ft | 229 kts | 234° |
| 2026-05-06 11:30 | 36.88385 | 11.79131 | 4598 ft | 218 kts | 194° |
| 2026-05-06 11:30 | 36.86889 | 11.78888 | 4563 ft | 218 kts | 181° |
| 2026-05-06 11:31 | 36.85377 | 11.78771 | 4455 ft | 219 kts | 182° |
| 2026-05-06 11:31 | 36.83888 | 11.78598 | 4347 ft | 209 kts | 184° |
| 2026-05-06 11:31 | 36.82471 | 11.78400 | 4282 ft | 200 kts | 184° |
| 2026-05-06 11:31 | 36.81091 | 11.78194 | 4212 ft | 198 kts | 184° |
| 2026-05-06 11:32 | 36.79765 | 11.78047 | 4080 ft | 187 kts | 173° |
| 2026-05-06 11:32 | 36.78736 | 11.78734 | 3961 ft | 159 kts | 128° |
| 2026-05-06 11:32 | 36.78413 | 11.80012 | 3585 ft | 162 kts | 92° |
| 2026-05-06 11:32 | 36.78580 | 11.81400 | 3240 ft | 159 kts | 81° |
| 2026-05-06 11:33 | 36.78866 | 11.82706 | 2990 ft | 150 kts | 79° |
| 2026-05-06 11:33 | 36.79128 | 11.83901 | 2758 ft | 138 kts | 80° |
| 2026-05-06 11:33 | 36.79354 | 11.85020 | 2540 ft | 132 kts | 82° |
| 2026-05-06 11:33 | 36.79566 | 11.86129 | 2352 ft | 131 kts | 81° |
| 2026-05-06 11:34 | 36.79778 | 11.87234 | 2167 ft | 131 kts | 83° |
| 2026-05-06 11:34 | 36.79990 | 11.88333 | 1977 ft | 130 kts | 81° |
| 2026-05-06 11:34 | 36.80204 | 11.89427 | 1771 ft | 130 kts | 85° |
| 2026-05-06 11:34 | 36.80416 | 11.90524 | 1568 ft | 130 kts | 83° |
| 2026-05-06 11:35 | 36.80626 | 11.91611 | 1370 ft | 129 kts | 79° |
| 2026-05-06 11:35 | 36.80832 | 11.92689 | 1173 ft | 128 kts | 78° |
| 2026-05-06 11:35 | 36.81035 | 11.93777 | 1007 ft | 129 kts | 77° |
| 2026-05-06 11:35 | 36.81257 | 11.94854 | 782 ft | 126 kts | 83° |
| 2026-05-06 11:36 | 36.81463 | 11.95927 | 633 ft | 126 kts | 80° |
| 2026-05-06 11:36 | 36.81624 | 11.96785 | 599 ft | 61 kts | 71° |
| 2026-05-06 11:36 | 36.81681 | 11.97083 | 599 ft | 28 kts | 77° |
| 2026-05-06 11:36 | 36.81727 | 11.97313 | 598 ft | 26 kts | 75° |
| 2026-05-06 11:37 | 36.81752 | 11.97522 | 590 ft | 17 kts | 77° |
| 2026-05-06 11:37 | 36.81775 | 11.97500 | 589 ft | 7 kts | 259° |
| 2026-05-06 11:37 | 36.81763 | 11.97438 | 592 ft | 8 kts | 253° |
| 2026-05-06 11:37 | 36.81737 | 11.97333 | 597 ft | 16 kts | 253° |
| 2026-05-06 11:38 | 36.81707 | 11.97197 | 599 ft | 16 kts | 255° |
| 2026-05-06 11:38 | 36.81701 | 11.97057 | 598 ft | 17 kts | 289° |
| 2026-05-06 11:38 | 36.81760 | 11.96910 | 593 ft | 20 kts | 299° |
| 2026-05-06 11:38 | 36.81802 | 11.96815 | 590 ft | 1 kts | 297° |
| 2026-05-06 11:39 | 36.81812 | 11.96790 | 589 ft | 3 kts | 301° |
| 2026-05-06 11:39 | 36.81824 | 11.96789 | 588 ft | 3 kts | 45° |
| 2026-05-06 11:39 | 36.81826 | 11.96799 | 589 ft | 0 kts | 82° |
| 2026-05-06 11:39 | 36.81826 | 11.96800 | 589 ft | 0 kts | 76° |